sensor_id;sensor_type;location;lat;lon;timestamp;P1;durP1;ratioP1;P2;durP2;ratioP2
75356;SDS011;63946;51.986;5.930;2024-01-06T07:29:55;10.77;;;6.95;;
75356;SDS011;63946;51.986;5.930;2024-01-06T07:32:23;8.90;;;5.60;;
75356;SDS011;63946;51.986;5.930;2024-01-06T07:34:53;11.48;;;6.97;;
75356;SDS011;63946;51.986;5.930;2024-01-06T07:37:21;8.93;;;6.30;;
75356;SDS011;63946;51.986;5.930;2024-01-06T07:39:51;11.48;;;6.97;;
75356;SDS011;63946;51.986;5.930;2024-01-06T07:42:22;10.02;;;6.35;;
75356;SDS011;63946;51.986;5.930;2024-01-06T07:44:51;10.52;;;6.63;;
75356;SDS011;63946;51.986;5.930;2024-01-06T07:47:19;10.93;;;6.40;;
75356;SDS011;63946;51.986;5.930;2024-01-06T07:49:48;9.45;;;6.45;;
75356;SDS011;63946;51.986;5.930;2024-01-06T07:52:18;12.05;;;7.45;;
75356;SDS011;63946;51.986;5.930;2024-01-06T07:54:47;10.93;;;6.72;;
75356;SDS011;63946;51.986;5.930;2024-01-06T07:57:15;11.27;;;7.00;;
75356;SDS011;63946;51.986;5.930;2024-01-06T07:59:45;11.80;;;7.93;;
75356;SDS011;63946;51.986;5.930;2024-01-06T08:02:14;11.05;;;7.28;;
75356;SDS011;63946;51.986;5.930;2024-01-06T08:04:42;11.80;;;6.82;;
75356;SDS011;63946;51.986;5.930;2024-01-06T08:07:11;12.52;;;7.47;;
75356;SDS011;63946;51.986;5.930;2024-01-06T08:09:40;13.05;;;7.68;;
75356;SDS011;63946;51.986;5.930;2024-01-06T08:12:09;12.77;;;6.70;;
75356;SDS011;63946;51.986;5.930;2024-01-06T08:14:39;11.45;;;6.40;;
75356;SDS011;63946;51.986;5.930;2024-01-06T08:17:08;10.13;;;6.03;;
75356;SDS011;63946;51.986;5.930;2024-01-06T08:19:37;9.98;;;6.18;;
75356;SDS011;63946;51.986;5.930;2024-01-06T08:22:07;10.52;;;6.88;;
75356;SDS011;63946;51.986;5.930;2024-01-06T08:24:36;11.65;;;7.07;;
75356;SDS011;63946;51.986;5.930;2024-01-06T08:27:07;9.80;;;5.93;;
75356;SDS011;63946;51.986;5.930;2024-01-06T08:29:36;10.52;;;6.63;;
75356;SDS011;63946;51.986;5.930;2024-01-06T08:32:05;14.00;;;7.93;;
75356;SDS011;63946;51.986;5.930;2024-01-06T08:34:34;11.20;;;5.82;;
75356;SDS011;63946;51.986;5.930;2024-01-06T08:37:02;13.23;;;7.00;;
75356;SDS011;63946;51.986;5.930;2024-01-06T08:39:31;12.45;;;7.15;;
75356;SDS011;63946;51.986;5.930;2024-01-06T08:42:00;14.55;;;8.77;;
75356;SDS011;63946;51.986;5.930;2024-01-06T08:44:29;12.45;;;6.63;;
75356;SDS011;63946;51.986;5.930;2024-01-06T08:46:57;14.15;;;7.50;;
75356;SDS011;63946;51.986;5.930;2024-01-06T08:49:26;11.48;;;6.45;;
75356;SDS011;63946;51.986;5.930;2024-01-06T08:51:55;14.13;;;7.78;;
75356;SDS011;63946;51.986;5.930;2024-01-06T08:54:23;16.30;;;8.63;;
75356;SDS011;63946;51.986;5.930;2024-01-06T08:56:52;14.30;;;7.43;;
75356;SDS011;63946;51.986;5.930;2024-01-06T08:59:22;10.50;;;6.50;;
75356;SDS011;63946;51.986;5.930;2024-01-06T09:01:51;10.43;;;6.60;;
75356;SDS011;63946;51.986;5.930;2024-01-06T09:04:20;13.10;;;7.28;;
75356;SDS011;63946;51.986;5.930;2024-01-06T09:06:48;12.70;;;7.03;;
75356;SDS011;63946;51.986;5.930;2024-01-06T09:09:17;12.93;;;6.88;;
75356;SDS011;63946;51.986;5.930;2024-01-06T09:11:46;15.00;;;7.55;;
75356;SDS011;63946;51.986;5.930;2024-01-06T09:14:16;14.90;;;8.02;;
75356;SDS011;63946;51.986;5.930;2024-01-06T09:16:45;13.30;;;7.55;;
75356;SDS011;63946;51.986;5.930;2024-01-06T09:19:14;14.93;;;7.95;;
75356;SDS011;63946;51.986;5.930;2024-01-06T09:21:43;17.70;;;8.55;;
75356;SDS011;63946;51.986;5.930;2024-01-06T09:24:11;12.43;;;7.28;;
75356;SDS011;63946;51.986;5.930;2024-01-06T09:26:40;12.13;;;7.43;;
75356;SDS011;63946;51.986;5.930;2024-01-06T09:29:09;13.10;;;7.95;;
75356;SDS011;63946;51.986;5.930;2024-01-06T09:31:38;14.43;;;7.63;;
75356;SDS011;63946;51.986;5.930;2024-01-06T09:34:09;17.85;;;9.35;;
75356;SDS011;63946;51.986;5.930;2024-01-06T09:36:45;15.18;;;9.18;;
75356;SDS011;63946;51.986;5.930;2024-01-06T09:39:14;17.13;;;9.35;;
75356;SDS011;63946;51.986;5.930;2024-01-06T09:41:43;16.20;;;8.57;;
75356;SDS011;63946;51.986;5.930;2024-01-06T09:44:11;17.45;;;9.25;;
75356;SDS011;63946;51.986;5.930;2024-01-06T09:46:40;16.27;;;9.63;;
75356;SDS011;63946;51.986;5.930;2024-01-06T09:49:10;16.17;;;9.10;;
75356;SDS011;63946;51.986;5.930;2024-01-06T09:51:40;14.45;;;8.45;;
75356;SDS011;63946;51.986;5.930;2024-01-06T09:54:09;17.95;;;9.95;;
75356;SDS011;63946;51.986;5.930;2024-01-06T09:56:40;14.77;;;8.38;;
75356;SDS011;63946;51.986;5.930;2024-01-06T09:59:13;13.02;;;7.78;;
75356;SDS011;63946;51.986;5.930;2024-01-06T10:01:42;15.73;;;8.75;;
75356;SDS011;63946;51.986;5.930;2024-01-06T10:04:11;15.93;;;9.15;;
75356;SDS011;63946;51.986;5.930;2024-01-06T10:06:40;13.07;;;7.72;;
75356;SDS011;63946;51.986;5.930;2024-01-06T10:09:10;15.20;;;9.10;;
75356;SDS011;63946;51.986;5.930;2024-01-06T10:11:42;14.85;;;8.50;;
75356;SDS011;63946;51.986;5.930;2024-01-06T10:14:11;16.20;;;8.88;;
75356;SDS011;63946;51.986;5.930;2024-01-06T10:16:40;14.40;;;9.75;;
75356;SDS011;63946;51.986;5.930;2024-01-06T10:19:10;14.85;;;8.80;;
75356;SDS011;63946;51.986;5.930;2024-01-06T10:21:39;17.95;;;9.95;;
75356;SDS011;63946;51.986;5.930;2024-01-06T10:24:08;17.02;;;9.88;;
75356;SDS011;63946;51.986;5.930;2024-01-06T10:26:37;17.17;;;10.32;;
75356;SDS011;63946;51.986;5.930;2024-01-06T10:29:06;16.15;;;9.57;;
75356;SDS011;63946;51.986;5.930;2024-01-06T10:31:34;18.25;;;10.23;;
75356;SDS011;63946;51.986;5.930;2024-01-06T10:34:03;17.10;;;10.50;;
75356;SDS011;63946;51.986;5.930;2024-01-06T10:36:33;19.65;;;9.43;;
75356;SDS011;63946;51.986;5.930;2024-01-06T10:39:03;14.45;;;8.63;;
75356;SDS011;63946;51.986;5.930;2024-01-06T10:41:35;13.35;;;8.55;;
75356;SDS011;63946;51.986;5.930;2024-01-06T10:44:04;15.57;;;9.45;;
75356;SDS011;63946;51.986;5.930;2024-01-06T10:46:34;13.80;;;7.95;;
75356;SDS011;63946;51.986;5.930;2024-01-06T10:49:05;14.35;;;9.80;;
75356;SDS011;63946;51.986;5.930;2024-01-06T10:54:05;16.88;;;8.43;;
75356;SDS011;63946;51.986;5.930;2024-01-06T10:56:38;13.98;;;7.57;;
75356;SDS011;63946;51.986;5.930;2024-01-06T10:59:07;14.25;;;7.32;;
75356;SDS011;63946;51.986;5.930;2024-01-06T11:01:36;10.90;;;6.90;;
75356;SDS011;63946;51.986;5.930;2024-01-06T11:04:07;12.80;;;7.57;;
75356;SDS011;63946;51.986;5.930;2024-01-06T11:06:39;16.08;;;8.70;;
75356;SDS011;63946;51.986;5.930;2024-01-06T11:09:09;11.35;;;7.18;;
75356;SDS011;63946;51.986;5.930;2024-01-06T11:11:42;14.32;;;8.73;;
75356;SDS011;63946;51.986;5.930;2024-01-06T11:14:25;12.85;;;7.78;;
75356;SDS011;63946;51.986;5.930;2024-01-06T11:16:54;14.63;;;8.05;;
75356;SDS011;63946;51.986;5.930;2024-01-06T11:24:53;11.70;;;8.07;;
75356;SDS011;63946;51.986;5.930;2024-01-06T11:27:24;15.20;;;8.77;;
75356;SDS011;63946;51.986;5.930;2024-01-06T11:29:58;13.88;;;8.73;;
75356;SDS011;63946;51.986;5.930;2024-01-06T11:32:31;15.02;;;9.55;;
75356;SDS011;63946;51.986;5.930;2024-01-06T11:42:45;15.23;;;8.95;;
75356;SDS011;63946;51.986;5.930;2024-01-06T11:45:14;13.40;;;8.00;;
75356;SDS011;63946;51.986;5.930;2024-01-06T11:47:47;14.20;;;8.73;;
75356;SDS011;63946;51.986;5.930;2024-01-06T11:50:16;12.10;;;7.47;;
75356;SDS011;63946;51.986;5.930;2024-01-06T11:52:45;13.85;;;7.95;;
75356;SDS011;63946;51.986;5.930;2024-01-06T11:55:14;15.02;;;8.13;;
75356;SDS011;63946;51.986;5.930;2024-01-06T11:57:46;10.50;;;7.05;;
75356;SDS011;63946;51.986;5.930;2024-01-06T12:00:18;13.27;;;8.18;;
75356;SDS011;63946;51.986;5.930;2024-01-06T12:02:47;13.93;;;7.90;;
75356;SDS011;63946;51.986;5.930;2024-01-06T12:05:17;12.88;;;8.13;;
75356;SDS011;63946;51.986;5.930;2024-01-06T12:08:20;13.10;;;7.55;;
75356;SDS011;63946;51.986;5.930;2024-01-06T12:10:41;13.10;;;8.63;;
75356;SDS011;63946;51.986;5.930;2024-01-06T12:13:10;11.93;;;7.65;;
75356;SDS011;63946;51.986;5.930;2024-01-06T12:15:40;13.65;;;8.40;;
75356;SDS011;63946;51.986;5.930;2024-01-06T12:18:08;12.20;;;7.63;;
75356;SDS011;63946;51.986;5.930;2024-01-06T12:20:37;11.13;;;7.63;;
75356;SDS011;63946;51.986;5.930;2024-01-06T12:23:07;14.30;;;8.15;;
75356;SDS011;63946;51.986;5.930;2024-01-06T12:25:36;11.18;;;7.68;;
75356;SDS011;63946;51.986;5.930;2024-01-06T12:28:05;9.80;;;6.97;;
75356;SDS011;63946;51.986;5.930;2024-01-06T12:30:34;11.00;;;7.80;;
75356;SDS011;63946;51.986;5.930;2024-01-06T12:33:06;11.98;;;7.70;;
75356;SDS011;63946;51.986;5.930;2024-01-06T12:35:35;11.35;;;7.68;;
75356;SDS011;63946;51.986;5.930;2024-01-06T12:38:10;11.65;;;7.80;;
75356;SDS011;63946;51.986;5.930;2024-01-06T12:40:39;12.27;;;6.70;;
75356;SDS011;63946;51.986;5.930;2024-01-06T12:43:07;15.30;;;8.63;;
75356;SDS011;63946;51.986;5.930;2024-01-06T12:45:36;14.35;;;8.85;;
75356;SDS011;63946;51.986;5.930;2024-01-06T12:48:05;14.30;;;9.25;;
75356;SDS011;63946;51.986;5.930;2024-01-06T12:50:34;15.90;;;8.20;;
75356;SDS011;63946;51.986;5.930;2024-01-06T12:53:03;13.98;;;9.32;;
75356;SDS011;63946;51.986;5.930;2024-01-06T12:55:32;12.75;;;7.50;;
75356;SDS011;63946;51.986;5.930;2024-01-06T12:58:00;13.13;;;8.35;;
75356;SDS011;63946;51.986;5.930;2024-01-06T13:00:29;14.27;;;8.02;;
75356;SDS011;63946;51.986;5.930;2024-01-06T13:02:58;13.52;;;8.07;;
75356;SDS011;63946;51.986;5.930;2024-01-06T13:05:27;12.40;;;7.78;;
75356;SDS011;63946;51.986;5.930;2024-01-06T13:07:56;14.38;;;9.15;;
75356;SDS011;63946;51.986;5.930;2024-01-06T13:10:25;15.20;;;9.13;;
75356;SDS011;63946;51.986;5.930;2024-01-06T13:12:54;15.13;;;9.50;;
75356;SDS011;63946;51.986;5.930;2024-01-06T13:15:26;18.25;;;9.98;;
75356;SDS011;63946;51.986;5.930;2024-01-06T13:17:56;13.38;;;8.82;;
75356;SDS011;63946;51.986;5.930;2024-01-06T13:20:24;14.77;;;8.27;;
75356;SDS011;63946;51.986;5.930;2024-01-06T13:22:53;15.35;;;9.73;;
75356;SDS011;63946;51.986;5.930;2024-01-06T13:25:22;16.40;;;8.88;;
75356;SDS011;63946;51.986;5.930;2024-01-06T13:27:50;15.40;;;9.93;;
75356;SDS011;63946;51.986;5.930;2024-01-06T13:30:23;17.80;;;10.43;;
75356;SDS011;63946;51.986;5.930;2024-01-06T13:32:54;14.35;;;9.75;;
75356;SDS011;63946;51.986;5.930;2024-01-06T13:35:27;15.63;;;9.52;;
75356;SDS011;63946;51.986;5.930;2024-01-06T13:37:57;15.02;;;9.63;;
75356;SDS011;63946;51.986;5.930;2024-01-06T13:40:25;15.00;;;9.00;;
75356;SDS011;63946;51.986;5.930;2024-01-06T13:42:54;15.07;;;10.02;;
75356;SDS011;63946;51.986;5.930;2024-01-06T13:45:23;16.70;;;9.90;;
75356;SDS011;63946;51.986;5.930;2024-01-06T13:47:52;16.10;;;9.77;;
75356;SDS011;63946;51.986;5.930;2024-01-06T13:50:23;16.45;;;9.77;;
75356;SDS011;63946;51.986;5.930;2024-01-06T13:52:52;17.05;;;10.55;;
75356;SDS011;63946;51.986;5.930;2024-01-06T13:55:21;15.50;;;10.40;;
75356;SDS011;63946;51.986;5.930;2024-01-06T13:57:50;17.45;;;10.02;;
75356;SDS011;63946;51.986;5.930;2024-01-06T14:00:19;17.90;;;10.50;;
75356;SDS011;63946;51.986;5.930;2024-01-06T14:02:50;14.00;;;9.68;;
75356;SDS011;63946;51.986;5.930;2024-01-06T14:05:22;17.05;;;9.93;;
75356;SDS011;63946;51.986;5.930;2024-01-06T14:07:51;16.02;;;9.73;;
75356;SDS011;63946;51.986;5.930;2024-01-06T14:12:57;16.95;;;10.13;;
75356;SDS011;63946;51.986;5.930;2024-01-06T14:15:26;16.77;;;10.40;;
75356;SDS011;63946;51.986;5.930;2024-01-06T14:17:56;16.92;;;10.68;;
75356;SDS011;63946;51.986;5.930;2024-01-06T14:20:25;16.05;;;9.95;;
75356;SDS011;63946;51.986;5.930;2024-01-06T14:22:54;15.35;;;9.65;;
75356;SDS011;63946;51.986;5.930;2024-01-06T14:25:24;21.33;;;11.30;;
75356;SDS011;63946;51.986;5.930;2024-01-06T14:27:53;18.75;;;10.00;;
75356;SDS011;63946;51.986;5.930;2024-01-06T14:30:22;17.77;;;9.93;;
75356;SDS011;63946;51.986;5.930;2024-01-06T14:32:50;18.58;;;10.18;;
75356;SDS011;63946;51.986;5.930;2024-01-06T14:35:19;16.30;;;10.77;;
75356;SDS011;63946;51.986;5.930;2024-01-06T14:37:51;13.98;;;9.18;;
75356;SDS011;63946;51.986;5.930;2024-01-06T14:40:22;16.15;;;10.13;;
75356;SDS011;63946;51.986;5.930;2024-01-06T14:42:51;17.70;;;10.65;;
75356;SDS011;63946;51.986;5.930;2024-01-06T14:45:20;15.80;;;9.77;;
75356;SDS011;63946;51.986;5.930;2024-01-06T14:47:50;17.60;;;10.88;;
75356;SDS011;63946;51.986;5.930;2024-01-06T14:50:19;17.90;;;11.02;;
75356;SDS011;63946;51.986;5.930;2024-01-06T14:52:48;17.77;;;10.00;;
75356;SDS011;63946;51.986;5.930;2024-01-06T14:55:17;17.23;;;9.63;;
75356;SDS011;63946;51.986;5.930;2024-01-06T14:57:52;17.38;;;9.65;;
75356;SDS011;63946;51.986;5.930;2024-01-06T15:00:21;18.65;;;10.80;;
75356;SDS011;63946;51.986;5.930;2024-01-06T15:02:52;16.33;;;10.65;;
75356;SDS011;63946;51.986;5.930;2024-01-06T15:05:20;18.17;;;10.77;;
75356;SDS011;63946;51.986;5.930;2024-01-06T15:07:58;16.35;;;9.05;;
75356;SDS011;63946;51.986;5.930;2024-01-06T15:10:27;18.73;;;10.38;;
75356;SDS011;63946;51.986;5.930;2024-01-06T15:12:56;15.82;;;9.57;;
75356;SDS011;63946;51.986;5.930;2024-01-06T15:15:25;17.80;;;9.98;;
75356;SDS011;63946;51.986;5.930;2024-01-06T15:17:53;15.60;;;9.20;;
75356;SDS011;63946;51.986;5.930;2024-01-06T15:20:22;16.10;;;9.85;;
75356;SDS011;63946;51.986;5.930;2024-01-06T15:22:51;14.32;;;10.02;;
75356;SDS011;63946;51.986;5.930;2024-01-06T15:25:22;18.38;;;10.82;;
75356;SDS011;63946;51.986;5.930;2024-01-06T15:27:51;14.70;;;9.35;;
75356;SDS011;63946;51.986;5.930;2024-01-06T15:30:20;16.80;;;10.18;;
75356;SDS011;63946;51.986;5.930;2024-01-06T15:35:21;14.80;;;8.63;;
75356;SDS011;63946;51.986;5.930;2024-01-06T15:37:50;14.80;;;8.95;;
75356;SDS011;63946;51.986;5.930;2024-01-06T15:40:18;16.92;;;10.55;;
75356;SDS011;63946;51.986;5.930;2024-01-06T15:42:50;16.98;;;10.02;;
75356;SDS011;63946;51.986;5.930;2024-01-06T15:45:21;14.82;;;9.20;;
75356;SDS011;63946;51.986;5.930;2024-01-06T15:47:53;16.35;;;9.50;;
75356;SDS011;63946;51.986;5.930;2024-01-06T15:50:22;14.63;;;7.85;;
75356;SDS011;63946;51.986;5.930;2024-01-06T15:52:51;17.45;;;9.63;;
75356;SDS011;63946;51.986;5.930;2024-01-06T15:55:19;18.63;;;10.73;;
75356;SDS011;63946;51.986;5.930;2024-01-06T15:57:51;29.38;;;15.57;;
75356;SDS011;63946;51.986;5.930;2024-01-06T16:00:20;16.77;;;9.75;;
75356;SDS011;63946;51.986;5.930;2024-01-06T16:02:49;16.13;;;9.85;;
75356;SDS011;63946;51.986;5.930;2024-01-06T16:05:17;17.38;;;10.23;;
75356;SDS011;63946;51.986;5.930;2024-01-06T16:07:47;24.88;;;15.10;;
75356;SDS011;63946;51.986;5.930;2024-01-06T16:10:15;15.93;;;10.27;;
75356;SDS011;63946;51.986;5.930;2024-01-06T16:12:44;13.98;;;9.02;;
75356;SDS011;63946;51.986;5.930;2024-01-06T16:15:13;12.95;;;8.32;;
75356;SDS011;63946;51.986;5.930;2024-01-06T16:17:42;16.05;;;9.85;;
75356;SDS011;63946;51.986;5.930;2024-01-06T16:20:11;13.00;;;8.75;;
75356;SDS011;63946;51.986;5.930;2024-01-06T16:22:40;11.93;;;8.55;;
75356;SDS011;63946;51.986;5.930;2024-01-06T16:25:12;45.88;;;26.30;;
75356;SDS011;63946;51.986;5.930;2024-01-06T16:27:41;19.23;;;12.45;;
75356;SDS011;63946;51.986;5.930;2024-01-06T16:30:10;16.85;;;10.20;;
75356;SDS011;63946;51.986;5.930;2024-01-06T16:32:40;22.90;;;13.98;;
75356;SDS011;63946;51.986;5.930;2024-01-06T16:35:09;22.05;;;12.18;;
75356;SDS011;63946;51.986;5.930;2024-01-06T16:37:40;16.90;;;10.35;;
75356;SDS011;63946;51.986;5.930;2024-01-06T16:40:12;15.68;;;10.60;;
75356;SDS011;63946;51.986;5.930;2024-01-06T16:42:40;22.92;;;13.70;;
75356;SDS011;63946;51.986;5.930;2024-01-06T16:45:09;22.17;;;12.75;;
75356;SDS011;63946;51.986;5.930;2024-01-06T16:47:38;18.42;;;11.80;;
75356;SDS011;63946;51.986;5.930;2024-01-06T16:50:07;18.50;;;10.48;;
75356;SDS011;63946;51.986;5.930;2024-01-06T16:52:37;23.58;;;13.23;;
75356;SDS011;63946;51.986;5.930;2024-01-06T16:55:06;28.63;;;15.45;;
75356;SDS011;63946;51.986;5.930;2024-01-06T16:57:35;21.13;;;12.38;;
75356;SDS011;63946;51.986;5.930;2024-01-06T17:00:09;27.60;;;16.23;;
75356;SDS011;63946;51.986;5.930;2024-01-06T17:02:41;20.15;;;12.15;;
75356;SDS011;63946;51.986;5.930;2024-01-06T17:05:10;21.23;;;12.75;;
75356;SDS011;63946;51.986;5.930;2024-01-06T17:07:39;25.23;;;15.32;;
75356;SDS011;63946;51.986;5.930;2024-01-06T17:10:12;17.17;;;11.43;;
75356;SDS011;63946;51.986;5.930;2024-01-06T17:12:42;16.95;;;10.85;;
75356;SDS011;63946;51.986;5.930;2024-01-06T17:15:11;20.60;;;13.25;;
75356;SDS011;63946;51.986;5.930;2024-01-06T17:17:40;18.98;;;11.93;;
75356;SDS011;63946;51.986;5.930;2024-01-06T17:20:10;20.67;;;13.02;;
75356;SDS011;63946;51.986;5.930;2024-01-06T17:22:39;21.42;;;13.60;;
75356;SDS011;63946;51.986;5.930;2024-01-06T17:25:09;27.35;;;15.60;;
75356;SDS011;63946;51.986;5.930;2024-01-06T17:27:37;17.63;;;11.15;;
75356;SDS011;63946;51.986;5.930;2024-01-06T17:30:06;18.05;;;12.07;;
75356;SDS011;63946;51.986;5.930;2024-01-06T17:32:35;20.60;;;12.50;;
75356;SDS011;63946;51.986;5.930;2024-01-06T17:35:04;15.30;;;9.98;;
75356;SDS011;63946;51.986;5.930;2024-01-06T17:37:33;17.50;;;10.40;;
75356;SDS011;63946;51.986;5.930;2024-01-06T17:40:02;18.48;;;11.95;;
75356;SDS011;63946;51.986;5.930;2024-01-06T17:42:32;17.83;;;10.98;;
75356;SDS011;63946;51.986;5.930;2024-01-06T17:45:01;18.80;;;12.35;;
75356;SDS011;63946;51.986;5.930;2024-01-06T17:47:29;23.40;;;13.40;;
75356;SDS011;63946;51.986;5.930;2024-01-06T17:50:01;31.55;;;17.15;;
75356;SDS011;63946;51.986;5.930;2024-01-06T17:52:30;19.90;;;12.07;;
75356;SDS011;63946;51.986;5.930;2024-01-06T17:54:57;17.05;;;11.00;;
75356;SDS011;63946;51.986;5.930;2024-01-06T17:57:25;24.88;;;15.55;;
75356;SDS011;63946;51.986;5.930;2024-01-06T18:00:02;13.60;;;9.50;;
75356;SDS011;63946;51.986;5.930;2024-01-06T18:02:33;18.58;;;11.93;;
75356;SDS011;63946;51.986;5.930;2024-01-06T18:05:02;15.80;;;9.73;;
75356;SDS011;63946;51.986;5.930;2024-01-06T18:07:38;17.25;;;11.10;;
75356;SDS011;63946;51.986;5.930;2024-01-06T18:10:07;24.48;;;13.85;;
75356;SDS011;63946;51.986;5.930;2024-01-06T18:12:37;20.70;;;13.45;;
75356;SDS011;63946;51.986;5.930;2024-01-06T18:15:06;18.70;;;10.90;;
75356;SDS011;63946;51.986;5.930;2024-01-06T18:17:35;17.75;;;11.20;;
75356;SDS011;63946;51.986;5.930;2024-01-06T18:20:05;16.27;;;10.15;;
75356;SDS011;63946;51.986;5.930;2024-01-06T18:22:34;17.55;;;11.18;;
75356;SDS011;63946;51.986;5.930;2024-01-06T18:25:03;14.90;;;10.60;;
75356;SDS011;63946;51.986;5.930;2024-01-06T18:27:35;20.13;;;13.25;;
75356;SDS011;63946;51.986;5.930;2024-01-06T18:30:04;16.38;;;10.57;;
75356;SDS011;63946;51.986;5.930;2024-01-06T18:32:34;16.95;;;11.88;;
75356;SDS011;63946;51.986;5.930;2024-01-06T18:35:02;17.52;;;10.90;;
75356;SDS011;63946;51.986;5.930;2024-01-06T18:37:32;17.90;;;12.02;;
75356;SDS011;63946;51.986;5.930;2024-01-06T18:40:00;17.90;;;11.40;;
75356;SDS011;63946;51.986;5.930;2024-01-06T18:42:30;15.30;;;9.80;;
75356;SDS011;63946;51.986;5.930;2024-01-06T18:44:59;18.02;;;11.30;;
75356;SDS011;63946;51.986;5.930;2024-01-06T18:47:28;15.55;;;10.05;;
75356;SDS011;63946;51.986;5.930;2024-01-06T18:49:56;16.25;;;9.98;;
75356;SDS011;63946;51.986;5.930;2024-01-06T18:52:25;15.52;;;9.73;;
75356;SDS011;63946;51.986;5.930;2024-01-06T18:54:55;13.60;;;8.90;;
75356;SDS011;63946;51.986;5.930;2024-01-06T18:57:24;15.18;;;10.00;;
75356;SDS011;63946;51.986;5.930;2024-01-06T18:59:52;12.13;;;7.88;;
75356;SDS011;63946;51.986;5.930;2024-01-06T19:02:21;12.27;;;8.25;;
75356;SDS011;63946;51.986;5.930;2024-01-06T19:04:50;14.15;;;8.02;;
75356;SDS011;63946;51.986;5.930;2024-01-06T19:07:19;11.52;;;7.82;;
75356;SDS011;63946;51.986;5.930;2024-01-06T19:09:49;10.80;;;8.07;;
75356;SDS011;63946;51.986;5.930;2024-01-06T19:12:21;13.27;;;8.48;;
75356;SDS011;63946;51.986;5.930;2024-01-06T19:14:52;10.00;;;6.55;;
75356;SDS011;63946;51.986;5.930;2024-01-06T19:17:21;13.43;;;7.78;;
75356;SDS011;63946;51.986;5.930;2024-01-06T19:19:50;11.80;;;7.15;;
75356;SDS011;63946;51.986;5.930;2024-01-06T19:22:27;11.40;;;7.57;;
75356;SDS011;63946;51.986;5.930;2024-01-06T19:24:55;9.00;;;6.20;;
75356;SDS011;63946;51.986;5.930;2024-01-06T19:27:24;12.43;;;9.13;;
75356;SDS011;63946;51.986;5.930;2024-01-06T19:29:53;15.02;;;8.75;;
75356;SDS011;63946;51.986;5.930;2024-01-06T19:32:22;11.02;;;7.53;;
75356;SDS011;63946;51.986;5.930;2024-01-06T19:34:52;12.75;;;8.40;;
75356;SDS011;63946;51.986;5.930;2024-01-06T19:37:23;11.63;;;7.78;;
75356;SDS011;63946;51.986;5.930;2024-01-06T19:39:52;11.68;;;7.97;;
75356;SDS011;63946;51.986;5.930;2024-01-06T19:42:21;12.63;;;8.25;;
75356;SDS011;63946;51.986;5.930;2024-01-06T19:44:50;11.10;;;7.70;;
75356;SDS011;63946;51.986;5.930;2024-01-06T19:47:19;11.73;;;7.05;;
75356;SDS011;63946;51.986;5.930;2024-01-06T19:49:49;9.95;;;7.18;;
75356;SDS011;63946;51.986;5.930;2024-01-06T19:52:18;12.88;;;7.97;;
75356;SDS011;63946;51.986;5.930;2024-01-06T19:54:47;11.10;;;7.78;;
75356;SDS011;63946;51.986;5.930;2024-01-06T19:57:16;13.65;;;8.27;;
75356;SDS011;63946;51.986;5.930;2024-01-06T19:59:44;12.20;;;8.32;;
75356;SDS011;63946;51.986;5.930;2024-01-06T20:02:15;10.68;;;7.38;;
75356;SDS011;63946;51.986;5.930;2024-01-06T20:04:44;14.82;;;10.70;;
75356;SDS011;63946;51.986;5.930;2024-01-06T20:07:13;13.25;;;9.10;;
75356;SDS011;63946;51.986;5.930;2024-01-06T20:09:45;14.07;;;8.85;;
75356;SDS011;63946;51.986;5.930;2024-01-06T20:12:13;11.38;;;7.82;;
75356;SDS011;63946;51.986;5.930;2024-01-06T20:14:42;14.07;;;9.02;;
75356;SDS011;63946;51.986;5.930;2024-01-06T20:17:11;12.73;;;8.50;;
75356;SDS011;63946;51.986;5.930;2024-01-06T20:19:41;13.15;;;8.82;;
75356;SDS011;63946;51.986;5.930;2024-01-06T20:22:11;12.00;;;8.43;;
75356;SDS011;63946;51.986;5.930;2024-01-06T20:24:40;11.35;;;7.88;;
75356;SDS011;63946;51.986;5.930;2024-01-06T20:27:09;13.93;;;9.95;;
75356;SDS011;63946;51.986;5.930;2024-01-06T20:29:37;15.55;;;10.50;;
75356;SDS011;63946;51.986;5.930;2024-01-06T20:32:06;14.25;;;9.77;;
75356;SDS011;63946;51.986;5.930;2024-01-06T20:34:38;16.98;;;11.23;;
75356;SDS011;63946;51.986;5.930;2024-01-06T20:37:10;15.93;;;9.35;;
75356;SDS011;63946;51.986;5.930;2024-01-06T20:39:39;14.25;;;9.35;;
75356;SDS011;63946;51.986;5.930;2024-01-06T20:42:08;17.50;;;11.18;;
75356;SDS011;63946;51.986;5.930;2024-01-06T20:44:36;16.65;;;10.90;;
75356;SDS011;63946;51.986;5.930;2024-01-06T20:47:05;15.50;;;9.75;;
75356;SDS011;63946;51.986;5.930;2024-01-06T20:49:34;15.27;;;9.93;;
75356;SDS011;63946;51.986;5.930;2024-01-06T20:52:03;14.02;;;9.18;;
75356;SDS011;63946;51.986;5.930;2024-01-06T20:54:32;15.45;;;9.63;;
75356;SDS011;63946;51.986;5.930;2024-01-06T20:57:02;12.45;;;8.35;;
75356;SDS011;63946;51.986;5.930;2024-01-06T20:59:33;16.15;;;10.38;;
75356;SDS011;63946;51.986;5.930;2024-01-06T21:02:04;17.30;;;10.95;;
75356;SDS011;63946;51.986;5.930;2024-01-06T21:04:33;16.55;;;11.55;;
75356;SDS011;63946;51.986;5.930;2024-01-06T21:07:05;15.70;;;10.73;;
75356;SDS011;63946;51.986;5.930;2024-01-06T21:09:34;16.58;;;10.73;;
75356;SDS011;63946;51.986;5.930;2024-01-06T21:12:04;15.70;;;11.52;;
75356;SDS011;63946;51.986;5.930;2024-01-06T21:14:33;17.95;;;11.73;;
75356;SDS011;63946;51.986;5.930;2024-01-06T21:17:03;17.15;;;11.18;;
75356;SDS011;63946;51.986;5.930;2024-01-06T21:19:35;14.27;;;9.25;;
75356;SDS011;63946;51.986;5.930;2024-01-06T21:22:04;17.80;;;11.30;;
75356;SDS011;63946;51.986;5.930;2024-01-06T21:24:34;18.58;;;10.48;;
75356;SDS011;63946;51.986;5.930;2024-01-06T21:27:03;15.65;;;10.60;;
75356;SDS011;63946;51.986;5.930;2024-01-06T21:29:32;13.82;;;9.60;;
75356;SDS011;63946;51.986;5.930;2024-01-06T21:32:01;16.83;;;10.93;;
75356;SDS011;63946;51.986;5.930;2024-01-06T21:34:30;13.95;;;9.77;;
75356;SDS011;63946;51.986;5.930;2024-01-06T21:37:01;17.50;;;11.07;;
75356;SDS011;63946;51.986;5.930;2024-01-06T21:39:34;15.88;;;10.63;;
75356;SDS011;63946;51.986;5.930;2024-01-06T21:42:03;16.48;;;10.90;;
75356;SDS011;63946;51.986;5.930;2024-01-06T21:44:32;16.08;;;10.38;;
75356;SDS011;63946;51.986;5.930;2024-01-06T21:47:01;15.73;;;9.68;;
75356;SDS011;63946;51.986;5.930;2024-01-06T21:49:30;18.15;;;10.85;;
75356;SDS011;63946;51.986;5.930;2024-01-06T21:51:59;16.02;;;10.10;;
75356;SDS011;63946;51.986;5.930;2024-01-06T21:57:01;16.90;;;9.73;;
75356;SDS011;63946;51.986;5.930;2024-01-06T21:59:30;16.42;;;9.98;;
75356;SDS011;63946;51.986;5.930;2024-01-06T22:01:59;14.52;;;8.65;;
75356;SDS011;63946;51.986;5.930;2024-01-06T22:04:29;14.98;;;10.02;;
75356;SDS011;63946;51.986;5.930;2024-01-06T22:06:57;16.00;;;10.82;;
75356;SDS011;63946;51.986;5.930;2024-01-06T22:09:26;15.75;;;10.07;;
75356;SDS011;63946;51.986;5.930;2024-01-06T22:11:55;16.27;;;9.88;;
75356;SDS011;63946;51.986;5.930;2024-01-06T22:14:24;12.75;;;7.95;;
75356;SDS011;63946;51.986;5.930;2024-01-06T22:16:53;14.13;;;9.32;;
